Time;durP1;ratioP1;P1;durP2;ratioP2;P2;SDS_P1;SDS_P2;PMS_P1;PMS_P2;Temp;Humidity;BMP_temperature;BMP_pressure;BME280_temperature;BME280_humidity;BME280_pressure;Samples;Min_cycle;Max_cycle;Signal;HPM_P1;HPM_P2
2023/01/21 00:00:00;;;;;;;;;54.50;44.50;;;;;4.59;68.62;98900.84;5015775;28;9556;-79
2023/01/21 00:02:52;;;;;;;;;40.50;36.75;;;;;4.82;67.54;98895.97;5034288;28;8897;-79
2023/01/21 00:05:21;;;;;;;;;42.75;40.00;;;;;5.26;66.80;98894.75;5031304;28;8928;-80
2023/01/21 00:07:50;;;;;;;;;41.50;35.50;;;;;5.34;66.34;98895.66;5048341;28;8889;-80
2023/01/21 00:10:19;;;;;;;;;44.00;37.50;;;;;5.58;66.02;98895.03;4988837;28;9012;-79
2023/01/21 00:12:48;;;;;;;;;53.00;46.25;;;;;5.36;66.19;98901.72;4955518;28;8912;-79
2023/01/21 00:15:18;;;;;;;;;43.50;39.00;;;;;5.43;65.95;98898.34;4972950;28;8900;-78
2023/01/21 00:17:46;;;;;;;;;46.25;42.50;;;;;5.50;65.30;98899.28;4991238;28;8852;-79
2023/01/21 00:20:16;;;;;;;;;47.25;42.50;;;;;5.59;65.42;98901.94;4975384;28;8908;-79
2023/01/21 00:22:45;;;;;;;;;39.75;32.00;;;;;5.39;65.36;98900.91;4988982;28;8867;-80
2023/01/21 00:25:14;;;;;;;;;46.50;40.25;;;;;5.70;64.86;98914.97;4976064;28;8882;-81
2023/01/21 00:27:43;;;;;;;;;49.25;38.75;;;;;6.02;65.13;98909.22;5011101;28;9559;-79
2023/01/21 00:30:13;;;;;;;;;53.00;45.50;;;;;5.60;64.77;98903.69;5011541;28;8845;-79
2023/01/21 00:32:43;;;;;;;;;48.50;40.25;;;;;5.63;66.06;98908.88;5011431;28;8958;-79
2023/01/21 00:35:13;;;;;;;;;46.00;41.25;;;;;5.85;65.09;98902.16;5020351;28;8894;-78
2023/01/21 00:37:42;;;;;;;;;45.75;41.00;;;;;6.15;65.10;98905.00;4991558;28;8859;-80
2023/01/21 00:40:11;;;;;;;;;41.75;38.00;;;;;6.21;64.59;98913.66;4994431;28;9010;-78
2023/01/21 00:42:41;;;;;;;;;48.25;43.25;;;;;6.51;64.43;98913.88;5030815;28;8869;-79
2023/01/21 00:45:10;;;;;;;;;46.75;42.75;;;;;6.69;63.74;98911.38;5049291;28;8868;-78
2023/01/21 00:47:39;;;;;;;;;44.50;40.25;;;;;6.08;63.22;98901.50;5049308;28;8829;-80
2023/01/21 00:50:11;;;;;;;;;41.75;41.00;;;;;6.28;63.05;98899.06;5064666;28;9624;-78
2023/01/21 00:52:40;;;;;;;;;51.50;44.00;;;;;5.41;64.75;98901.78;5035013;28;8865;-79
2023/01/21 00:55:09;;;;;;;;;50.75;41.00;;;;;5.04;65.90;98904.81;5019009;28;8874;-81
2023/01/21 00:57:38;;;;;;;;;43.50;40.50;;;;;5.13;65.91;98903.22;5084381;28;8838;-79
2023/01/21 01:00:09;;;;;;;;;47.25;40.50;;;;;4.81;67.24;98893.38;5053993;28;8872;-79
2023/01/21 01:02:38;;;;;;;;;48.50;36.75;;;;;4.32;68.39;98892.75;5051759;28;8836;-80
2023/01/21 01:05:09;;;;;;;;;49.25;41.50;;;;;4.11;69.87;98886.44;5035263;28;8876;-78
2023/01/21 01:07:40;;;;;;;;;30.25;27.00;;;;;4.36;68.93;98882.47;5035516;28;8835;-80
2023/01/21 01:10:09;;;;;;;;;43.75;36.00;;;;;4.24;69.40;98884.91;5069327;28;8914;-79
2023/01/21 01:12:38;;;;;;;;;27.75;27.75;;;;;4.09;70.16;98878.66;5035305;28;8952;-78
2023/01/21 01:15:07;;;;;;;;;55.25;42.75;;;;;4.07;70.44;98872.59;5018136;28;8864;-77
2023/01/21 01:17:37;;;;;;;;;47.50;42.00;;;;;4.03;70.92;98872.56;5066213;28;8837;-78
2023/01/21 01:20:07;;;;;;;;;38.75;37.75;;;;;4.12;70.85;98872.69;5071711;28;8838;-78
2023/01/21 01:22:37;;;;;;;;;42.75;39.00;;;;;4.38;69.79;98875.59;5005383;28;8849;-78
2023/01/21 01:25:06;;;;;;;;;47.75;38.50;;;;;4.91;68.49;98882.28;5071681;28;8872;-78
2023/01/21 01:27:35;;;;;;;;;40.25;34.25;;;;;4.63;68.35;98884.56;5021746;28;8880;-77
2023/01/21 01:30:05;;;;;;;;;39.50;38.00;;;;;4.61;68.43;98885.38;5055963;28;8903;-78
2023/01/21 01:32:34;;;;;;;;;45.00;39.50;;;;;4.46;68.48;98886.94;5078482;28;9667;-78
2023/01/21 01:35:03;;;;;;;;;33.50;30.00;;;;;4.96;68.02;98888.38;5035529;28;8952;-78
2023/01/21 01:37:32;;;;;;;;;44.25;39.00;;;;;5.46;67.43;98881.97;5051896;28;8851;-78
2023/01/21 01:40:02;;;;;;;;;50.00;38.50;;;;;5.81;67.08;98886.63;5069614;28;8840;-78
2023/01/21 01:42:31;;;;;;;;;51.75;38.25;;;;;6.17;65.71;98874.81;5069753;28;8876;-77
2023/01/21 01:45:02;;;;;;;;;45.25;36.50;;;;;5.91;64.48;98880.63;5035074;28;8843;-78
2023/01/21 01:47:36;;;;;;;;;46.25;38.50;;;;;5.89;63.44;98882.34;5015948;28;9452;-78
2023/01/21 01:50:10;;;;;;;;;44.25;35.00;;;;;5.81;63.63;98884.88;5028676;28;8888;-78
2023/01/21 01:52:42;;;;;;;;;37.75;30.50;;;;;5.71;64.18;98874.44;5008446;28;8844;-79
2023/01/21 01:55:14;;;;;;;;;41.25;38.75;;;;;6.15;64.73;98874.81;4990899;28;9013;-78
2023/01/21 01:57:47;;;;;;;;;48.75;44.00;;;;;6.42;64.92;98862.88;5009249;28;8851;-78
2023/01/21 02:00:16;;;;;;;;;45.25;41.75;;;;;6.66;64.60;98840.53;5009352;28;8889;-78
2023/01/21 02:03:43;;;;;;;;;51.25;42.75;;;;;6.90;63.70;98842.31;4975699;28;8851;-80
2023/01/21 02:05:37;;;;;;;;;38.50;34.75;;;;;7.01;62.86;98833.75;4997933;28;8909;-78
2023/01/21 02:08:07;;;;;;;;;49.25;43.75;;;;;6.48;62.24;98837.00;5012916;28;8905;-80
2023/01/21 02:10:37;;;;;;;;;47.25;39.75;;;;;6.88;62.95;98841.44;4981260;28;9003;-78
2023/01/21 02:13:07;;;;;;;;;47.50;42.25;;;;;7.02;63.40;98825.09;4967405;28;8875;-78
2023/01/21 02:15:40;;;;;;;;;40.75;36.00;;;;;7.17;63.66;98813.88;4995650;28;8913;-78
2023/01/21 02:18:18;;;;;;;;;41.50;39.75;;;;;7.34;63.31;98808.72;4996075;28;8847;-78
2023/01/21 02:21:11;;;;;;;;;42.75;40.00;;;;;7.58;63.76;98806.97;4994138;28;9017;-78
2023/01/21 02:24:05;;;;;;;;;43.25;35.50;;;;;7.72;63.54;98789.66;5012249;28;8950;-77
2023/01/21 02:27:02;;;;;;;;;33.00;32.25;;;;;7.85;62.85;98784.47;5023201;28;8861;-79
2023/01/21 02:30:05;;;;;;;;;41.25;36.75;;;;;7.97;63.56;98805.19;4988504;28;8873;-77
2023/01/21 02:33:05;;;;;;;;;42.00;34.25;;;;;7.99;63.13;98808.66;4968447;28;8892;-79
2023/01/21 02:35:42;;;;;;;;;46.50;41.75;;;;;8.00;61.08;98794.81;4922184;29;9080;-78
2023/01/21 02:38:20;;;;;;;;;48.00;36.50;;;;;8.06;61.79;98797.38;4927760;29;8908;-79
2023/01/21 02:40:57;;;;;;;;;41.00;31.50;;;;;8.05;61.42;98811.22;4929084;29;8873;-78
2023/01/21 02:43:35;;;;;;;;;41.00;37.50;;;;;8.08;60.89;98807.78;4881551;29;8885;-77
2023/01/21 02:46:13;;;;;;;;;44.25;39.75;;;;;8.12;61.80;98806.88;4897112;29;8905;-79
2023/01/21 02:48:50;;;;;;;;;42.25;39.50;;;;;8.21;62.36;98812.06;4916750;29;8896;-79
2023/01/21 02:51:23;;;;;;;;;40.00;37.00;;;;;8.25;61.22;98799.94;4916832;29;8854;-77
2023/01/21 02:53:51;;;;;;;;;58.25;40.50;;;;;8.27;61.26;98806.00;4928029;29;8912;-77
2023/01/21 02:56:24;;;;;;;;;45.00;42.00;;;;;8.29;60.68;98799.06;4912071;29;8850;-79
2023/01/21 02:58:59;;;;;;;;;52.25;44.25;;;;;8.29;60.62;98799.91;4912172;29;8927;-78
2023/01/21 03:01:46;;;;;;;;;49.00;41.75;;;;;8.36;60.82;98795.56;4912551;29;8837;-78
2023/01/21 03:04:48;;;;;;;;;51.00;43.00;;;;;8.45;61.88;98795.56;4928592;29;8885;-78
2023/01/21 03:07:27;;;;;;;;;43.00;37.25;;;;;8.03;58.35;98797.38;4921034;28;8901;-78
2023/01/21 03:10:04;;;;;;;;;46.75;41.75;;;;;8.09;60.66;98796.50;4916163;28;8887;-79
2023/01/21 03:12:41;;;;;;;;;41.00;36.00;;;;;8.10;61.13;98800.84;4964491;28;9606;-78
2023/01/21 03:18:10;;;;;;;;;44.25;40.00;;;;;7.95;60.07;98799.16;4986950;28;8885;-78
2023/01/21 03:20:43;;;;;;;;;50.25;40.00;;;;;7.73;59.32;98804.38;4970225;28;8974;-79
2023/01/21 03:23:20;;;;;;;;;49.00;40.50;;;;;7.87;60.67;98808.69;4922600;28;8878;-78
2023/01/21 03:25:50;;;;;;;;;47.25;40.25;;;;;7.89;60.35;98800.03;4919415;28;8990;-79
2023/01/21 03:28:22;;;;;;;;;50.75;42.50;;;;;8.03;60.26;98797.38;4950593;28;8971;-78
2023/01/21 03:30:56;;;;;;;;;48.75;41.00;;;;;8.09;61.04;98789.59;4966655;28;8872;-78
2023/01/21 03:33:27;;;;;;;;;49.00;41.50;;;;;8.12;60.53;98789.56;4974660;28;8904;-79
2023/01/21 03:36:01;;;;;;;;;47.25;38.50;;;;;8.22;60.59;98773.97;4954331;28;10026;-79
2023/01/21 03:38:38;;;;;;;;;31.25;29.00;;;;;8.30;60.17;98757.50;4954316;28;9666;-78
2023/01/21 03:41:12;;;;;;;;;43.25;39.00;;;;;8.21;59.36;98734.16;4970553;28;9600;-78
2023/01/21 03:43:41;;;;;;;;;50.25;41.25;;;;;8.05;58.91;98706.50;5001179;28;8847;-79
2023/01/21 03:46:17;;;;;;;;;38.25;32.50;;;;;7.71;59.66;98707.50;5089953;28;9572;-78
2023/01/21 03:48:52;;;;;;;;;54.75;44.75;;;;;7.41;60.62;98705.84;5092364;28;8868;-78
2023/01/21 03:51:27;;;;;;;;;57.00;48.25;;;;;7.43;60.66;98706.69;5092902;28;8911;-79
2023/01/21 03:53:59;;;;;;;;;57.75;47.00;;;;;7.48;61.25;98712.72;5074092;28;8837;-79
2023/01/21 03:56:28;;;;;;;;;38.50;30.25;;;;;7.55;61.14;98721.38;5050044;28;8942;-77
2023/01/21 03:58:57;;;;;;;;;63.50;49.00;;;;;7.63;60.25;98727.41;5027173;28;8837;-78
2023/01/21 04:01:26;;;;;;;;;58.25;46.25;;;;;7.61;60.89;98731.72;5028193;28;8868;-78
2023/01/21 04:03:55;;;;;;;;;57.25;49.00;;;;;7.61;60.28;98737.78;5012125;28;8864;-81
2023/01/21 04:06:24;;;;;;;;;61.25;50.00;;;;;7.57;60.35;98728.28;4995954;28;8888;-79
2023/01/21 04:08:53;;;;;;;;;61.50;46.00;;;;;7.51;60.15;98735.22;5012228;28;8860;-77
2023/01/21 04:11:22;;;;;;;;;54.25;42.75;;;;;7.61;60.45;98734.31;5011729;28;8876;-78
2023/01/21 04:13:51;;;;;;;;;46.00;41.75;;;;;7.67;61.65;98741.22;5010465;28;8860;-77
2023/01/21 04:16:20;;;;;;;;;58.00;46.75;;;;;7.34;60.84;98730.03;5027634;28;8873;-78
2023/01/21 04:18:49;;;;;;;;;54.25;46.25;;;;;7.33;60.58;98723.13;5027782;28;8869;-79
2023/01/21 04:21:18;;;;;;;;;55.25;48.25;;;;;6.79;61.12;98715.34;4994731;28;8963;-79
2023/01/21 04:23:47;;;;;;;;;51.25;38.75;;;;;6.79;61.15;98717.94;5008453;28;8968;-79
2023/01/21 04:26:16;;;;;;;;;57.75;44.25;;;;;6.78;61.61;98711.88;4975777;28;8871;-80
2023/01/21 04:28:46;;;;;;;;;54.00;44.25;;;;;6.90;61.33;98716.22;5008435;28;8859;-77
2023/01/21 04:31:15;;;;;;;;;41.50;37.50;;;;;6.75;61.52;98711.88;5043741;28;8985;-79
2023/01/21 04:33:44;;;;;;;;;50.75;42.75;;;;;6.85;61.35;98717.94;5031197;28;8846;-78
2023/01/21 04:36:13;;;;;;;;;47.00;42.50;;;;;6.87;61.92;98716.22;4991460;28;8862;-80
2023/01/21 04:38:42;;;;;;;;;46.75;41.25;;;;;6.96;61.73;98721.41;4991878;28;8838;-80
2023/01/21 04:41:11;;;;;;;;;47.50;42.75;;;;;6.90;61.25;98723.09;4991808;28;8902;-80
2023/01/21 04:43:40;;;;;;;;;54.50;46.25;;;;;6.93;60.93;98730.91;5007559;28;8879;-79
2023/01/21 04:46:10;;;;;;;;;52.75;44.50;;;;;7.01;61.29;98737.81;4990446;28;8948;-78
2023/01/21 04:48:39;;;;;;;;;62.00;46.50;;;;;6.91;61.02;98733.47;5008249;28;8973;-79
2023/01/21 04:51:08;;;;;;;;;43.25;40.25;;;;;6.96;61.32;98736.09;5007845;28;8953;-78
2023/01/21 04:53:37;;;;;;;;;47.50;42.75;;;;;7.06;61.68;98742.16;5007733;28;8931;-77
2023/01/21 04:56:06;;;;;;;;;63.00;45.75;;;;;7.02;60.61;98752.50;5034831;28;8885;-81
2023/01/21 04:58:35;;;;;;;;;55.00;45.00;;;;;7.07;61.56;98760.31;5031558;28;9029;-78
2023/01/21 05:01:04;;;;;;;;;46.50;42.00;;;;;7.23;61.79;98764.59;5014512;28;8869;-80
2023/01/21 05:03:34;;;;;;;;;42.25;34.25;;;;;7.16;61.57;98757.69;5013270;28;8915;-79
2023/01/21 05:06:03;;;;;;;;;57.00;47.75;;;;;7.17;60.76;98755.97;5047351;28;9048;-80
2023/01/21 05:08:32;;;;;;;;;47.75;43.75;;;;;6.79;61.15;98756.81;5049856;28;8885;-79
2023/01/21 05:11:01;;;;;;;;;46.75;41.50;;;;;7.02;61.00;98752.50;5051076;28;8842;-79
2023/01/21 05:13:30;;;;;;;;;124.25;113.00;;;;;7.25;61.52;98755.97;5051948;28;8842;-78
2023/01/21 05:16:03;;;;;;;;;75.00;60.67;;;;;7.34;61.11;98763.75;5068600;28;10950;-81
2023/01/21 05:18:33;;;;;;;;;60.75;50.00;;;;;7.37;61.41;98758.56;5035043;28;9046;-78
2023/01/21 05:21:02;;;;;;;;;54.25;46.25;;;;;7.38;61.29;98758.56;5068027;28;8889;-77
2023/01/21 05:23:31;;;;;;;;;61.25;48.50;;;;;7.46;60.64;98760.28;5068944;28;8912;-78
2023/01/21 05:26:00;;;;;;;;;55.50;45.00;;;;;7.53;61.01;98765.47;5068246;28;9459;-78
2023/01/21 05:28:29;;;;;;;;;58.33;47.33;;;;;7.56;60.38;98762.00;5051586;28;8850;-78
2023/01/21 05:31:01;;;;;;;;;61.50;49.75;;;;;7.61;60.05;98757.69;5068021;28;8904;-78
2023/01/21 05:33:31;;;;;;;;;62.25;49.75;;;;;7.54;60.01;98756.84;5069284;28;8877;-78
2023/01/21 05:36:03;;;;;;;;;49.75;39.75;;;;;7.63;61.22;98757.69;5068980;28;8857;-77
2023/01/21 05:38:32;;;;;;;;;63.50;49.50;;;;;7.51;60.12;98758.56;5050326;28;8874;-77
2023/01/21 05:41:02;;;;;;;;;52.75;45.75;;;;;7.22;60.23;98764.59;5068021;28;8838;-76
2023/01/21 05:43:31;;;;;;;;;49.50;43.75;;;;;7.07;60.10;98756.81;5067130;28;8886;-78
2023/01/21 05:46:00;;;;;;;;;62.25;48.50;;;;;6.89;60.66;98750.75;5067911;28;8889;-78
2023/01/21 05:48:29;;;;;;;;;63.00;49.00;;;;;7.08;60.17;98755.97;5068739;28;8846;-78
2023/01/21 05:50:58;;;;;;;;;46.75;42.25;;;;;6.92;60.50;98755.97;5067981;28;8842;-78
2023/01/21 05:53:29;;;;;;;;;55.75;47.75;;;;;6.92;60.81;98761.13;5067019;28;8947;-79
2023/01/21 05:55:57;;;;;;;;;38.00;35.25;;;;;7.05;60.91;98766.31;5016969;28;8874;-77
2023/01/21 05:58:26;;;;;;;;;33.25;27.00;;;;;6.91;60.83;98771.50;5071128;28;9003;-81
2023/01/21 06:00:57;;;;;;;;;45.50;34.75;;;;;6.96;60.87;98774.97;5065976;28;8855;-77
2023/01/21 06:03:26;;;;;;;;;51.00;46.50;;;;;7.05;61.24;98774.09;5050757;28;8839;-80
2023/01/21 06:05:54;;;;;;;;;52.00;43.50;;;;;7.08;61.55;98768.94;5050614;28;8855;-78
2023/01/21 06:08:23;;;;;;;;;52.00;45.75;;;;;7.18;61.23;98757.69;5068206;28;8863;-77
2023/01/21 06:10:55;;;;;;;;;46.25;40.75;;;;;7.18;60.75;98743.03;5015521;28;8879;-77
2023/01/21 06:13:24;;;;;;;;;48.75;42.50;;;;;7.10;60.46;98736.94;4992842;28;8892;-79
2023/01/21 06:15:54;;;;;;;;;35.75;34.75;;;;;7.02;60.76;98741.28;5025857;28;8912;-78
2023/01/21 06:18:24;;;;;;;;;45.00;40.75;;;;;7.01;60.74;98745.59;5026043;28;8950;-78
2023/01/21 06:20:53;;;;;;;;;52.50;44.75;;;;;6.85;61.03;98754.22;5025211;28;8869;-78
2023/01/21 06:23:21;;;;;;;;;57.25;45.25;;;;;6.98;61.73;98750.78;5008953;28;8873;-78
2023/01/21 06:25:50;;;;;;;;;51.50;44.50;;;;;6.96;60.33;98747.31;5008950;28;9001;-79
2023/01/21 06:28:20;;;;;;;;;53.75;45.75;;;;;7.00;61.13;98746.44;5006270;28;8879;-80
2023/01/21 06:30:49;;;;;;;;;41.50;38.75;;;;;7.07;60.87;98744.75;4989775;28;8899;-78
2023/01/21 06:33:19;;;;;;;;;52.00;43.75;;;;;7.02;60.53;98747.31;4989691;28;8867;-78
2023/01/21 06:35:47;;;;;;;;;53.25;44.50;;;;;6.89;61.05;98755.09;5005616;28;8896;-78
2023/01/21 06:38:16;;;;;;;;;46.00;39.75;;;;;6.87;60.72;98762.00;4985197;28;8871;-79
2023/01/21 06:40:45;;;;;;;;;42.25;40.50;;;;;6.86;61.23;98780.97;5006025;28;8938;-78
2023/01/21 06:43:15;;;;;;;;;51.50;44.50;;;;;6.92;60.97;98774.09;5055924;28;8852;-80
2023/01/21 06:45:45;;;;;;;;;47.50;44.00;;;;;6.80;60.56;98780.09;5019826;28;9043;-80
2023/01/21 06:48:14;;;;;;;;;41.50;37.75;;;;;6.89;60.77;98783.59;5016197;28;8844;-79
2023/01/21 06:50:43;;;;;;;;;44.00;38.25;;;;;6.68;60.95;98782.69;5048366;28;8970;-79
2023/01/21 06:53:12;;;;;;;;;41.75;38.75;;;;;6.61;61.44;98774.00;5031122;28;8931;-80
2023/01/21 06:55:41;;;;;;;;;50.00;44.00;;;;;6.56;61.52;98772.25;5039075;28;8871;-80
2023/01/21 06:58:11;;;;;;;;;59.75;47.75;;;;;6.70;61.85;98770.59;5078303;28;8865;-80
2023/01/21 07:00:39;;;;;;;;;51.25;42.50;;;;;6.68;61.64;98797.38;5079507;28;8932;-79
2023/01/21 07:03:10;;;;;;;;;52.50;45.00;;;;;6.95;61.97;98793.97;5050770;28;8848;-80
2023/01/21 07:05:38;;;;;;;;;64.75;47.00;;;;;6.86;61.41;98799.97;5061263;28;8892;-79
2023/01/21 07:08:07;;;;;;;;;47.25;42.75;;;;;6.89;61.51;98792.22;5072069;28;9030;-81
2023/01/21 07:10:36;;;;;;;;;56.75;44.25;;;;;6.88;61.50;98800.88;5077404;28;8872;-80
2023/01/21 07:13:05;;;;;;;;;37.00;37.00;;;;;6.88;61.20;98798.28;5054870;28;8953;-79
2023/01/21 07:15:34;;;;;;;;;50.00;44.00;;;;;6.89;60.98;98789.63;5057529;28;8893;-78
2023/01/21 07:18:03;;;;;;;;;51.50;43.00;;;;;6.99;60.89;98794.00;5057156;28;8857;-81
2023/01/21 07:20:34;;;;;;;;;30.50;29.00;;;;;6.84;61.02;98783.56;5079003;28;8862;-78
2023/01/21 07:23:03;;;;;;;;;59.50;46.25;;;;;7.04;60.66;98773.25;5032795;28;8874;-77
2023/01/21 07:25:32;;;;;;;;;52.50;46.75;;;;;6.96;61.05;98762.00;5051029;28;8889;-80
2023/01/21 07:28:01;;;;;;;;;50.25;45.75;;;;;6.65;61.11;98769.69;5046174;28;8882;-80
2023/01/21 07:30:30;;;;;;;;;69.00;53.25;;;;;6.82;61.73;98786.19;5045346;28;8858;-78
2023/01/21 07:33:04;;;;;;;;;53.50;43.50;;;;;6.55;61.18;98781.78;5024421;28;8874;-78
2023/01/21 07:35:34;;;;;;;;;62.25;45.50;;;;;6.39;62.00;98786.03;5046241;28;9060;-78
2023/01/21 07:38:04;;;;;;;;;55.00;46.50;;;;;6.68;61.94;98766.28;4994213;28;8910;-80
2023/01/21 07:40:33;;;;;;;;;47.75;43.25;;;;;6.81;61.80;98766.28;4989656;28;8870;-80
2023/01/21 07:43:02;;;;;;;;;55.50;46.00;;;;;6.86;61.90;98771.47;4995249;28;8867;-81
2023/01/21 07:45:31;;;;;;;;;61.50;46.75;;;;;6.91;61.42;98769.75;4989621;28;9635;-78
2023/01/21 07:48:00;;;;;;;;;52.25;40.25;;;;;7.01;61.76;98762.88;5004190;28;8872;-77
2023/01/21 07:50:28;;;;;;;;;51.75;44.00;;;;;6.91;61.05;98764.59;5004415;28;8887;-75
2023/01/21 07:52:59;;;;;;;;;53.00;45.50;;;;;7.01;60.85;98768.03;4988462;28;8898;-76
2023/01/21 07:55:28;;;;;;;;;53.75;42.25;;;;;7.12;61.32;98786.22;4976441;28;8943;-76
2023/01/21 07:57:58;;;;;;;;;61.25;51.75;;;;;7.13;60.83;98786.22;5024311;28;8856;-76
2023/01/21 08:00:28;;;;;;;;;43.25;36.00;;;;;7.21;60.49;98788.81;5024387;28;8869;-74
2023/01/21 08:02:57;;;;;;;;;46.00;41.25;;;;;7.11;60.37;98792.28;4974197;28;8887;-77
2023/01/21 08:05:26;;;;;;;;;63.50;49.75;;;;;7.15;60.87;98797.44;5004725;28;8887;-75
2023/01/21 08:07:59;;;;;;;;;57.75;46.50;;;;;6.97;60.83;98803.47;4949565;28;9674;-78
2023/01/21 08:10:28;;;;;;;;;64.25;46.75;;;;;6.89;61.29;98804.31;5012729;28;8970;-80
2023/01/21 08:12:57;;;;;;;;;55.75;47.50;;;;;6.93;60.86;98804.31;5019609;28;8868;-81
2023/01/21 08:15:25;;;;;;;;;55.25;44.75;;;;;7.02;61.68;98808.66;5003115;28;8866;-81
2023/01/21 08:17:55;;;;;;;;;55.75;45.75;;;;;7.20;60.63;98800.03;5009032;28;8856;-81
2023/01/21 08:20:24;;;;;;;;;55.75;46.00;;;;;7.31;60.89;98806.09;4994103;28;8917;-84
2023/01/21 08:22:53;;;;;;;;;64.50;50.00;;;;;7.48;61.07;98815.63;4996301;28;8852;-82
2023/01/21 08:25:24;;;;;;;;;54.25;47.25;;;;;7.52;60.27;98815.59;5008540;28;8909;-81
2023/01/21 08:27:53;;;;;;;;;58.75;48.75;;;;;7.33;59.88;98809.56;4993411;28;9023;-81
2023/01/21 08:30:22;;;;;;;;;56.75;46.25;;;;;7.39;59.94;98801.81;4995741;28;8917;-80
2023/01/21 08:32:51;;;;;;;;;50.75;41.50;;;;;7.41;59.83;98807.00;5010731;28;8956;-80
2023/01/21 08:35:20;;;;;;;;;58.25;49.50;;;;;7.48;59.90;98813.03;5012140;28;8891;-81
2023/01/21 08:37:50;;;;;;;;;65.25;51.50;;;;;7.30;59.94;98812.16;5022263;28;8894;-79
2023/01/21 08:40:18;;;;;;;;;57.50;47.25;;;;;7.30;59.77;98801.78;5042662;28;8853;-80
2023/01/21 08:42:49;;;;;;;;;61.00;47.75;;;;;7.35;60.71;98791.41;5072786;28;8865;-79
2023/01/21 08:45:17;;;;;;;;;54.50;43.75;;;;;7.26;60.29;98781.91;5072726;28;8842;-83
2023/01/21 08:47:47;;;;;;;;;57.25;47.50;;;;;6.98;61.60;98774.09;5054100;28;9027;-79
2023/01/21 08:50:16;;;;;;;;;60.00;49.00;;;;;6.86;60.83;98771.47;5042535;28;8899;-80
2023/01/21 08:52:51;;;;;;;;;52.00;44.75;;;;;6.96;61.39;98777.56;5070881;28;8924;-79
2023/01/21 08:55:21;;;;;;;;;57.50;49.00;;;;;7.02;61.33;98783.59;5052213;28;8842;-82
2023/01/21 08:57:52;;;;;;;;;60.50;48.75;;;;;6.87;60.83;98787.91;5053591;28;8987;-83
2023/01/21 09:00:22;;;;;;;;;57.25;47.75;;;;;6.73;61.71;98787.84;5052731;28;8921;-79
2023/01/21 09:02:52;;;;;;;;;68.75;55.00;;;;;6.88;62.16;98789.63;5053761;28;8864;-81
2023/01/21 09:05:21;;;;;;;;;59.00;49.50;;;;;7.08;61.26;98766.34;5027178;28;8869;-80
2023/01/21 09:07:52;;;;;;;;;56.50;47.00;;;;;7.14;61.39;98768.94;5013380;28;10061;-80
2023/01/21 09:13:18;;;;;;;;;60.25;49.75;;;;;7.34;60.60;98774.13;5010121;28;8862;-81
2023/01/21 09:15:47;;;;;;;;;64.50;51.50;;;;;7.31;60.92;98774.13;4991525;28;8866;-80
2023/01/21 09:18:36;;;;;;;;;56.00;48.50;;;;;7.28;60.35;98766.34;4984865;28;9015;-77
2023/01/21 09:21:06;;;;;;;;;59.50;49.00;;;;;7.37;60.73;98777.59;4971803;28;8860;-78
2023/01/21 09:23:37;;;;;;;;;55.75;48.25;;;;;7.27;60.02;98781.03;4955915;28;8852;-79
2023/01/21 09:26:07;;;;;;;;;63.75;52.00;;;;;7.42;61.01;98790.53;4971818;28;8868;-79
2023/01/21 09:28:41;;;;;;;;;67.75;53.25;;;;;7.40;60.16;98789.69;4941302;28;8896;-79
2023/01/21 09:31:12;;;;;;;;;67.75;54.50;;;;;7.57;60.47;98782.75;4986996;28;9642;-78
2023/01/21 09:33:42;;;;;;;;;62.00;50.25;;;;;7.49;59.95;98794.88;4971758;28;8876;-78
2023/01/21 09:36:14;;;;;;;;;69.00;56.00;;;;;7.46;60.19;98792.28;5001050;28;8899;-78
2023/01/21 09:38:44;;;;;;;;;53.75;42.75;;;;;7.45;60.95;98800.03;5026926;28;8864;-77
2023/01/21 09:41:22;;;;;;;;;75.75;56.25;;;;;7.58;60.67;98789.69;5026310;28;9019;-77
2023/01/21 09:43:59;;;;;;;;;63.00;51.75;;;;;7.53;60.59;98796.59;5010267;28;8864;-76
2023/01/21 09:46:38;;;;;;;;;58.75;47.75;;;;;7.41;60.74;98792.28;4982201;28;8890;-78
2023/01/21 09:49:14;;;;;;;;;64.25;50.00;;;;;7.35;60.26;98788.81;4993511;28;9014;-78
2023/01/21 09:51:50;;;;;;;;;68.75;54.50;;;;;7.35;60.39;98792.28;4993935;28;8934;-78
2023/01/21 09:54:25;;;;;;;;;67.25;50.75;;;;;7.55;60.98;98794.00;4993947;28;8937;-77
2023/01/21 09:57:10;;;;;;;;;67.50;52.00;;;;;7.57;59.55;98792.28;5040728;28;8887;-78
2023/01/21 09:59:55;;;;;;;;;69.75;52.25;;;;;7.59;60.10;98791.41;5051543;28;8855;-78
2023/01/21 10:02:31;;;;;;;;;66.75;51.00;;;;;7.73;59.97;98788.81;5048921;28;8875;-79
2023/01/21 10:05:27;;;;;;;;;66.00;53.00;;;;;7.73;59.91;98790.50;5069584;28;8832;-79
2023/01/21 10:08:09;;;;;;;;;75.75;58.00;;;;;7.28;60.07;98784.47;4970494;28;9007;-79
2023/01/21 10:10:49;;;;;;;;;58.25;47.50;;;;;7.41;60.96;98781.91;4970944;28;8878;-78
2023/01/21 10:13:42;;;;;;;;;70.25;55.00;;;;;7.57;61.00;98782.75;4971505;28;8880;-78
2023/01/21 10:16:24;;;;;;;;;71.00;55.75;;;;;7.65;60.46;98774.09;4929071;29;8909;-80
2023/01/21 10:18:55;;;;;;;;;71.75;57.75;;;;;7.44;60.53;98775.84;4929478;29;8909;-78
2023/01/21 10:21:31;;;;;;;;;72.50;58.50;;;;;7.58;60.78;98778.41;4940895;28;8880;-78
2023/01/21 10:24:05;;;;;;;;;66.75;51.00;;;;;7.63;61.06;98775.84;4916737;28;8873;-78
2023/01/21 10:26:35;;;;;;;;;73.50;58.50;;;;;7.78;60.44;98775.81;4947979;28;8883;-78
2023/01/21 10:29:04;;;;;;;;;71.75;52.50;;;;;7.82;60.50;98777.53;4916190;28;8966;-80
2023/01/21 10:31:40;;;;;;;;;70.75;56.50;;;;;7.65;59.45;98774.97;4915822;28;8991;-78
2023/01/21 10:34:13;;;;;;;;;71.75;56.25;;;;;7.74;60.68;98771.50;4931869;28;8869;-80
2023/01/21 10:36:53;;;;;;;;;71.50;56.50;;;;;7.87;60.21;98767.16;4948075;28;8861;-80
2023/01/21 10:39:31;;;;;;;;;66.75;52.25;;;;;7.86;59.36;98755.88;4878112;29;8877;-77
2023/01/21 10:42:14;;;;;;;;;72.50;58.50;;;;;8.06;59.94;98753.25;4893709;29;8869;-78
2023/01/21 10:44:49;;;;;;;;;67.25;50.00;;;;;8.14;60.28;98745.44;4904066;28;8857;-77
2023/01/21 10:47:31;;;;;;;;;68.50;54.50;;;;;8.10;59.26;98744.56;4920708;28;8846;-78
2023/01/21 10:50:04;;;;;;;;;69.50;55.50;;;;;8.26;60.02;98741.91;4935293;28;8867;-80
2023/01/21 10:52:40;;;;;;;;;70.25;56.00;;;;;8.48;59.95;98732.31;4960284;28;8872;-78
2023/01/21 10:55:27;;;;;;;;;71.50;58.00;;;;;8.43;59.33;98726.28;5026163;28;8896;-80
2023/01/21 10:58:02;;;;;;;;;67.75;53.50;;;;;8.48;59.17;98727.13;4985564;28;8866;-77
2023/01/21 11:00:36;;;;;;;;;66.75;50.75;;;;;8.22;58.60;98725.47;5067845;28;9717;-77
2023/01/21 11:03:14;;;;;;;;;75.75;59.00;;;;;8.48;58.83;98719.34;5068927;28;8871;-79
2023/01/21 11:05:44;;;;;;;;;70.00;53.75;;;;;8.63;59.94;98713.19;5050829;28;8901;-77
2023/01/21 11:08:20;;;;;;;;;78.00;61.75;;;;;8.72;59.10;98718.34;5058149;28;8940;-79
2023/01/21 11:10:54;;;;;;;;;68.75;55.50;;;;;8.58;58.30;98706.28;5088627;28;8861;-78
2023/01/21 11:13:23;;;;;;;;;66.25;55.50;;;;;8.73;58.66;98704.44;5070241;28;8845;-77
2023/01/21 11:15:54;;;;;;;;;62.00;50.75;;;;;8.74;58.37;98703.59;5054209;28;9618;-77
2023/01/21 11:18:35;;;;;;;;;67.75;54.00;;;;;9.10;59.09;98696.38;5069993;28;8864;-78
2023/01/21 11:21:17;;;;;;;;;77.00;59.25;;;;;9.15;58.78;98699.81;5070151;28;8877;-77
2023/01/21 11:23:54;;;;;;;;;69.50;56.25;;;;;9.18;58.45;98697.16;5053607;28;8834;-80
2023/01/21 11:26:26;;;;;;;;;70.75;54.75;;;;;9.24;58.15;98696.25;5075250;28;8894;-77
2023/01/21 11:29:12;;;;;;;;;62.75;49.25;;;;;9.16;56.63;98699.78;5033354;28;8844;-80
2023/01/21 11:31:43;;;;;;;;;72.00;56.25;;;;;9.22;57.67;98701.47;5068712;28;9626;-79
2023/01/21 11:34:17;;;;;;;;;66.75;54.50;;;;;9.34;58.01;98697.91;5067975;28;8901;-78
2023/01/21 11:37:00;;;;;;;;;70.00;55.75;;;;;9.44;57.14;98691.72;5050666;28;8852;-77
2023/01/21 11:39:31;;;;;;;;;67.75;54.25;;;;;9.44;57.25;98701.28;5050129;28;8852;-78
2023/01/21 11:42:06;;;;;;;;;69.00;55.25;;;;;9.47;57.58;98704.72;5016456;28;8840;-79
2023/01/21 11:44:36;;;;;;;;;36.75;28.50;;;;;9.52;57.45;98700.31;5038012;28;8829;-78
2023/01/21 11:47:28;;;;;;;;;65.50;54.50;;;;;9.66;57.18;98700.19;5069217;28;8839;-78
2023/01/21 11:50:11;;;;;;;;;67.50;52.50;;;;;9.73;57.35;98706.19;5027096;28;9624;-78
2023/01/21 11:52:41;;;;;;;;;63.50;48.00;;;;;9.66;57.22;98702.78;4978265;28;9031;-80
2023/01/21 11:55:21;;;;;;;;;65.75;49.50;;;;;9.86;57.33;98707.75;5012660;28;8869;-77
2023/01/21 11:57:53;;;;;;;;;72.50;55.75;;;;;9.84;56.77;98708.69;5029129;28;8931;-76
2023/01/21 12:00:25;;;;;;;;;67.25;54.75;;;;;9.89;57.25;98706.88;4978320;28;8895;-79
2023/01/21 12:02:58;;;;;;;;;67.25;52.75;;;;;9.97;56.89;98709.41;4973893;28;8955;-76